LFRKLFRC

Guest
Details From LFRK - Caen Carpiquet
To LFRC - Cherbourg Maupertus
Flight Number -
Tags generated
Created
Modified
Stats Distance 49 nm / 91 km
Max Altitude 0 ft / 0 m
Waypoints 3
Social Downloads 4
Likes 0
Share VATSIM

Download

Looking for another format? Having issues loading an existing format? Contact us
Advertisement - Login to hide

Notes

Basic altitude profile: - Ascent Rate: 2500ft/min - Ascent Speed: 250kts - Cruise Altitude: 35000ft - Cruise Speed: 420kts - Descent Rate: 1500ft/min - Descent Speed: 250kts

Route

LFRK CAN LFRC

ID Type Via Altitude Latitude Longitude Leg Dist Tot Dist Heading (true) Name
O LFRK APT - 0 ft / 0 m 49.17512˚ -0.45194˚ - 0 nm - Caen Carpiquet
CAN VOR - 0 ft / 0 m 49.17319˚ -0.45528˚ 0 nm 0 nm 229° / 229° CAEN CARPIQUET VOR
O LFRC APT - 0 ft / 0 m 49.65015˚ -1.47026˚ 48 nm 49 nm 306° / 305° Cherbourg Maupertus

Altitude Profile

Advertisement - Login to hide

LFRK

Details ICAO LFRK (CFR)
Name Caen Carpiquet
Region France
Timezone Europe/Paris (UTC+1.0)
Stats Elevation 256 ft / 78 m (AMSL)
Location 49.175122° -0.451941°
Runways 2
Magnetic Variation 0.321° W

METAR

LFRK 152030Z AUTO 33013KT 9999 BKN039 BKN045 06/02 Q1008 TEMPO 4000 SHRA BKN015CB

Decode

TAF

Not found

Departure Runways

ID Width Length Bearing (true) Bearing (mag) Surface Threshold Offset Overrun Length
06 98 ft / 30 m 3,880 ft / 1,183 m 51.68° 52.00° Asphalt 0 ft / 0 m 0 ft / 0 m
13 148 ft / 45 m 6,215 ft / 1,894 m 125.34° 125.66° Asphalt 984 ft / 300 m 0 ft / 0 m
24 98 ft / 30 m 3,880 ft / 1,183 m 231.69° 232.01° Asphalt 0 ft / 0 m 0 ft / 0 m
31 148 ft / 45 m 6,215 ft / 1,894 m 305.36° 305.68° Asphalt 0 ft / 0 m 0 ft / 0 m

LFRC

Details ICAO LFRC (CER)
Name Cherbourg Maupertus
Region France
Timezone Europe/Paris (UTC+1.0)
Stats Elevation 459 ft / 140 m (AMSL)
Location 49.650151° -1.470264°
Runways 1
Magnetic Variation 0.706° W

METAR

LFRC 152030Z AUTO 35012G24KT 9999 OVC023 06/01 Q1009

Decode

TAF

Not found

Destination Runways

ID Width Length Bearing (true) Bearing (mag) Surface Threshold Offset Overrun Length
10 148 ft / 45 m 7,985 ft / 2,434 m 100.78° 101.49° Asphalt 0 ft / 0 m 0 ft / 0 m
28 148 ft / 45 m 7,985 ft / 2,434 m 280.80° 281.51° Asphalt 0 ft / 0 m 0 ft / 0 m

Approach Navaids

Runway Type Ident Frequency Range Bearing (true) Bearing (mag) Slope Elevation
28 Localiser MP 110.55 MHz 18 nm / 33 km 280.78° 281.49° - 459 ft / 140 m (AMSL)
28 Glidescope MP 110.55 MHz 10 nm / 19 km 280.79° 281.50° 3.00° 482 ft / 147 m (AMSL)
28 DME MP 110.55 MHz 18 nm / 33 km - - - 459 ft / 140 m (AMSL)

Popular Alternatives